South Channel Island, Victoria

5:24 AM AEDT on February 15, 2016 (GMT +1100)
Sorrento, back beach | | Change Station
CLOSE
Current Station
Personal Weather Station
Location: Sorrento, VICTORIA
Elevation: 52 ft
Nearby Weather Stations

Elev 52 ft 38.36 °S, 144.75 °E | Updated 44 seconds ago

Clear
Clear
57.7 °F
Feels Like 57.7 °F
N
2.9
Wind Variable Wind from SE
Gusts 7.0 mph

Today
High -- | Low -- °F
--% Chance of Precip.
Yesterday
High -- | Low -- °F
Precip. -- in
Pressure 29.92 in
Visibility 6.2 miles
Clouds
Dew Point 54 °F
Humidity 89%
Rainfall 0.00 in
Snow Depth Not available.
6:48 AM 8:20 PM
Waxing Crescent, 44% visible
METAR YMAV 141800Z AUTO 29007KT 9999 // NCD 12/10 Q1013
Pressure 29.92 in
Visibility 6.2 miles
Clouds
Dew Point 54 °F
Humidity 89%
Rainfall 0.00 in
Snow Depth Not available.
6:48 AM 8:20 PM
Waxing Crescent, 44% visible
METAR YMAV 141800Z AUTO 29007KT 9999 // NCD 12/10 Q1013

10-Day Weather Forecast

Almanac

Astronomy

Feb. 15, 2016 Rise Set
Actual Time
Civil Twilight
Nautical Twilight
Astronomical Twilight
Moon
Length of Visible Light
Length of Day
Tomorrow will be .
, % of the Moon is Illuminated

Today's Extremes

Country Highs Country Lows

Community

WunderPhotos

Upload Photos

1,892,869 photos uploaded!

WunderBlog® & News

Nearby

Air Quality

  Air Quality AQ Index Pollutant
Not available.

Snow Depth

Station Depth Elevation

Earthquake Activity

City Distance Mag. Time & Date
Minimum magnitude displayed is 2.5.

Coastal Water Temperatures

Place Temperature

Stations

Nearby Weather Stations

Station Location Temp. Windchill Dew Point Humidity Wind Precip. Elev Updated Type